aviador You're here:

PAEN Decoded Metar

KENAI in AK, USA
Report Time2018-06-25 01:53:00
UTC Time2018-06-25 02:06:48
Flight Rules vfr VFR
Wind220° at 07 kt
W.Decomp.*RWY 19: 6.9 kt HW 1.3 kt RCW
W.Rank220° ranks 9
Current wind is below 220° avg. (7.7)
Visibility9999 m
Phenomena:N/A
Clouds:Overcast 075 Hf
Expected CloudBase > 2,800 ft AGL from Temp-Dew spread
Ceiling7,500 ft
Temp14°C (ISA -1)
Dew Point07°C (63% RH)
AAT10.8°C
QNH1014 hPa
Density Alt95 ft
Elevation89 ft
Report Wrong Elevation
Raw Report
PAEN 250153Z 22007KT 10SM OVC075 14/07 A2993 RMK AO2 SLP136
T01440067=

Extra information for PAEN:More info

Metar Taf Metar & Taf Last 4 Metars F.Rules Stats Wind Profile Meteogram Temp Stats Airport Information Weather charts Add Link Nearby VenuesMetar ALERT Operation Metar Decoded Social comments

AIRNAV info for PAEN